Time;durP1;ratioP1;P1;durP2;ratioP2;P2;SDS_P1;SDS_P2;PMS_P1;PMS_P2;Temp;Humidity;BMP_temperature;BMP_pressure;BME280_temperature;BME280_humidity;BME280_pressure;Samples;Min_cycle;Max_cycle;Signal;HPM_P1;HPM_P2
2023/08/17 00:00:58;;;;;;;5.60;5.20;;;24.00;99.90;;;;;;5053506;28;20241;-71
2023/08/17 00:03:26;;;;;;;4.95;4.55;;;24.00;99.90;;;;;;5053709;28;20242;-71
2023/08/17 00:05:53;;;;;;;5.88;4.30;;;24.00;99.90;;;;;;5052914;28;20242;-71
2023/08/17 00:08:20;;;;;;;5.18;4.72;;;24.00;99.90;;;;;;5053943;28;20256;-71
2023/08/17 00:10:47;;;;;;;5.35;5.05;;;23.90;99.90;;;;;;5052856;28;20238;-71
2023/08/17 00:13:14;;;;;;;6.25;5.45;;;24.00;99.90;;;;;;5053513;28;20210;-71
2023/08/17 00:15:44;;;;;;;4.55;4.25;;;24.00;99.90;;;;;;5053807;28;20230;-72
2023/08/17 00:18:11;;;;;;;4.75;4.45;;;24.00;99.90;;;;;;5053019;28;20601;-71
2023/08/17 00:20:40;;;;;;;4.35;4.03;;;24.00;99.90;;;;;;5053662;28;20206;-72
2023/08/17 00:23:07;;;;;;;7.32;4.53;;;24.00;99.90;;;;;;5053077;28;20307;-72
2023/08/17 00:25:33;;;;;;;5.72;5.15;;;24.00;99.90;;;;;;5053166;28;20238;-73
2023/08/17 00:28:00;;;;;;;5.38;4.97;;;23.80;99.90;;;;;;5052724;28;20250;-72
2023/08/17 00:30:27;;;;;;;5.55;4.90;;;23.80;99.90;;;;;;5053063;28;20248;-73
2023/08/17 00:32:54;;;;;;;4.90;4.50;;;23.80;99.90;;;;;;5052971;28;20253;-71
2023/08/17 00:35:21;;;;;;;5.25;4.75;;;23.90;99.90;;;;;;5051867;28;20270;-69
2023/08/17 00:37:49;;;;;;;6.18;4.32;;;23.90;99.90;;;;;;5052926;28;20243;-70
2023/08/17 00:40:16;;;;;;;6.80;5.43;;;23.90;99.90;;;;;;5052681;28;20233;-72
2023/08/17 00:42:43;;;;;;;4.30;3.90;;;23.80;99.90;;;;;;5053161;28;20632;-70
2023/08/17 00:45:10;;;;;;;6.70;4.75;;;23.80;99.90;;;;;;5052548;28;20645;-70
2023/08/17 00:47:38;;;;;;;5.15;4.60;;;23.80;99.90;;;;;;5052777;28;20246;-70
2023/08/17 00:50:06;;;;;;;5.38;4.97;;;23.80;99.90;;;;;;5052132;28;20249;-72
2023/08/17 00:52:34;;;;;;;5.43;4.93;;;23.80;99.90;;;;;;5053065;28;20242;-68
2023/08/17 00:55:04;;;;;;;4.80;4.32;;;23.80;99.90;;;;;;5052012;28;20270;-72
2023/08/17 00:57:32;;;;;;;4.63;4.22;;;23.90;99.90;;;;;;5052745;28;20214;-72
2023/08/17 01:00:00;;;;;;;4.47;4.18;;;23.90;99.90;;;;;;5051987;28;20224;-72
2023/08/17 01:02:28;;;;;;;5.03;4.55;;;23.90;99.90;;;;;;5052926;28;20207;-72
2023/08/17 01:04:55;;;;;;;4.97;4.57;;;23.90;99.90;;;;;;5052217;28;20242;-71
2023/08/17 01:07:22;;;;;;;7.30;5.57;;;23.90;99.90;;;;;;5052482;28;20234;-73
2023/08/17 01:09:50;;;;;;;5.03;4.50;;;23.70;99.90;;;;;;5051766;28;20241;-71
2023/08/17 01:12:29;;;;;;;4.88;4.45;;;23.70;99.90;;;;;;5052001;28;20705;-70
2023/08/17 01:15:04;;;;;;;5.93;5.38;;;23.70;99.90;;;;;;5052213;28;20273;-72
2023/08/17 01:17:37;;;;;;;4.50;4.13;;;23.60;99.90;;;;;;5052044;28;20206;-72
2023/08/17 01:20:06;;;;;;;5.90;5.13;;;23.60;99.90;;;;;;5051877;28;20300;-70
2023/08/17 01:22:36;;;;;;;5.72;5.15;;;23.70;99.90;;;;;;5052111;28;20298;-71
2023/08/17 01:25:04;;;;;;;5.63;4.97;;;23.60;99.90;;;;;;5051302;28;20246;-71
2023/08/17 01:27:42;;;;;;;6.18;5.68;;;23.60;99.90;;;;;;5052439;28;20280;-71
2023/08/17 01:30:12;;;;;;;6.47;5.55;;;23.60;99.90;;;;;;5051888;28;20211;-71
2023/08/17 01:32:45;;;;;;;4.90;4.47;;;23.60;99.90;;;;;;5052100;28;20250;-70
2023/08/17 01:35:19;;;;;;;4.68;4.28;;;23.60;99.90;;;;;;5051825;28;20706;-70
2023/08/17 01:37:47;;;;;;;6.18;5.57;;;23.60;99.90;;;;;;5051687;28;20727;-70
2023/08/17 01:40:16;;;;;;;5.68;5.20;;;23.60;99.90;;;;;;5052141;28;20686;-71
2023/08/17 01:42:44;;;;;;;6.03;5.53;;;23.70;99.90;;;;;;5049828;28;20256;-71
2023/08/17 01:45:12;;;;;;;5.25;4.78;;;23.70;99.90;;;;;;5051648;28;20271;-71
2023/08/17 01:47:39;;;;;;;5.35;4.95;;;23.70;99.90;;;;;;5051711;28;20234;-72
2023/08/17 01:50:07;;;;;;;5.68;5.22;;;23.70;99.90;;;;;;5051339;28;20245;-71
2023/08/17 01:52:34;;;;;;;6.05;5.53;;;23.70;99.90;;;;;;5051707;28;20461;-71
2023/08/17 01:55:01;;;;;;;5.45;5.05;;;23.70;99.90;;;;;;5051011;28;20256;-71
2023/08/17 01:57:30;;;;;;;6.32;5.82;;;23.70;99.90;;;;;;5051799;28;20242;-71
2023/08/17 01:59:56;;;;;;;7.53;6.65;;;23.60;99.90;;;;;;5050671;28;20254;-71
2023/08/17 02:02:23;;;;;;;6.43;5.93;;;23.60;99.90;;;;;;5051457;28;20214;-71
2023/08/17 02:04:50;;;;;;;6.75;6.13;;;23.50;99.90;;;;;;5050885;28;20246;-71
2023/08/17 02:07:17;;;;;;;5.85;5.40;;;23.40;99.90;;;;;;5051102;28;20305;-71
2023/08/17 02:09:44;;;;;;;6.45;5.95;;;23.40;99.90;;;;;;5051470;28;20215;-71
2023/08/17 02:12:11;;;;;;;5.90;5.35;;;23.40;99.90;;;;;;5051167;28;20247;-70
2023/08/17 02:14:39;;;;;;;7.47;6.60;;;23.40;99.90;;;;;;5051002;28;20663;-71
2023/08/17 02:17:06;;;;;;;7.55;6.32;;;23.40;99.90;;;;;;5050386;28;20242;-71
2023/08/17 02:19:33;;;;;;;7.00;6.35;;;23.40;99.90;;;;;;5051166;28;20238;-72
2023/08/17 02:22:01;;;;;;;6.72;6.18;;;23.40;99.90;;;;;;5050401;28;20694;-72
2023/08/17 02:24:28;;;;;;;7.28;6.68;;;23.40;99.90;;;;;;5051132;28;20246;-69
2023/08/17 02:26:55;;;;;;;6.85;6.25;;;23.40;99.90;;;;;;5050597;28;20643;-72
2023/08/17 02:29:22;;;;;;;7.90;7.20;;;23.40;99.90;;;;;;5050725;28;20292;-73
2023/08/17 02:31:50;;;;;;;6.38;5.88;;;23.40;99.90;;;;;;5050380;28;20296;-72
2023/08/17 02:34:17;;;;;;;7.10;6.50;;;23.40;99.90;;;;;;5050716;28;20245;-70
2023/08/17 02:36:44;;;;;;;6.57;5.97;;;23.50;99.90;;;;;;5050501;28;20277;-71
2023/08/17 02:39:11;;;;;;;6.53;6.03;;;23.50;99.90;;;;;;5050707;28;20257;-71
2023/08/17 02:41:38;;;;;;;7.18;6.47;;;23.50;99.90;;;;;;5050549;28;20246;-72
2023/08/17 02:44:05;;;;;;;7.03;6.35;;;23.50;99.90;;;;;;5050165;28;20702;-72
2023/08/17 02:46:32;;;;;;;5.88;5.47;;;23.50;99.90;;;;;;5050716;28;20231;-72
2023/08/17 02:49:00;;;;;;;6.03;5.05;;;23.60;99.90;;;;;;5050313;28;20234;-72
2023/08/17 02:51:27;;;;;;;6.38;5.75;;;23.60;99.90;;;;;;5050362;28;20238;-72
2023/08/17 02:53:54;;;;;;;5.85;5.45;;;23.60;99.90;;;;;;5050074;28;20245;-71
2023/08/17 02:56:21;;;;;;;7.68;6.47;;;23.50;99.90;;;;;;5050203;28;20276;-72
2023/08/17 02:58:48;;;;;;;6.15;5.55;;;23.40;99.90;;;;;;5049778;28;20674;-72
2023/08/17 03:01:15;;;;;;;7.18;6.50;;;23.40;99.90;;;;;;5050519;28;20234;-71
2023/08/17 03:03:41;;;;;;;6.28;5.68;;;23.30;99.90;;;;;;5050717;28;20247;-72
2023/08/17 03:06:10;;;;;;;6.90;6.22;;;23.40;99.90;;;;;;5049818;28;20238;-71
2023/08/17 03:08:37;;;;;;;5.75;5.28;;;23.40;99.90;;;;;;5050379;28;20235;-73
2023/08/17 03:11:07;;;;;;;5.95;5.10;;;23.40;99.90;;;;;;5049624;28;20704;-74
2023/08/17 03:13:34;;;;;;;6.65;6.05;;;23.40;99.90;;;;;;5050573;28;20214;-72
2023/08/17 03:16:01;;;;;;;5.90;5.50;;;23.30;99.90;;;;;;5049842;28;20268;-72
2023/08/17 03:18:27;;;;;;;6.40;5.88;;;23.40;99.90;;;;;;5050175;28;20690;-71
2023/08/17 03:20:54;;;;;;;6.85;6.35;;;23.40;99.90;;;;;;5049623;28;20245;-72
2023/08/17 03:23:22;;;;;;;5.93;5.53;;;23.40;99.90;;;;;;5050262;28;20337;-72
2023/08/17 03:25:53;;;;;;;6.15;5.55;;;23.30;99.90;;;;;;5049715;28;20246;-72
2023/08/17 03:28:19;;;;;;;6.57;5.97;;;23.30;99.90;;;;;;5049947;28;20660;-72
2023/08/17 03:30:46;;;;;;;6.28;5.82;;;23.30;99.90;;;;;;5050312;28;20242;-72
2023/08/17 03:33:13;;;;;;;5.72;5.28;;;23.30;99.90;;;;;;5050205;28;20705;-71
2023/08/17 03:35:40;;;;;;;6.93;6.22;;;23.30;99.90;;;;;;5050468;28;20311;-79
2023/08/17 03:38:07;;;;;;;6.57;5.88;;;23.30;99.90;;;;;;5050021;28;20721;-72
2023/08/17 03:40:36;;;;;;;5.60;5.15;;;23.20;99.90;;;;;;5050409;28;20211;-72
2023/08/17 03:43:03;;;;;;;7.00;6.30;;;23.20;99.90;;;;;;5049976;28;20234;-78
2023/08/17 03:45:30;;;;;;;6.35;5.75;;;23.20;99.90;;;;;;5050013;28;20629;-72
2023/08/17 03:47:57;;;;;;;6.28;5.88;;;23.20;99.90;;;;;;5049453;28;20238;-72
2023/08/17 03:50:26;;;;;;;7.15;6.55;;;23.20;99.90;;;;;;5050015;28;20250;-73
2023/08/17 03:52:53;;;;;;;7.25;6.55;;;23.20;99.90;;;;;;5049396;28;20253;-75
2023/08/17 03:55:20;;;;;;;7.60;6.88;;;23.10;99.90;;;;;;5050116;28;20289;-70
2023/08/17 03:57:48;;;;;;;7.18;6.57;;;23.10;99.90;;;;;;5049588;28;20238;-69
2023/08/17 04:00:15;;;;;;;6.80;6.25;;;23.10;99.90;;;;;;5050076;28;20211;-70
2023/08/17 04:02:42;;;;;;;6.63;5.88;;;23.10;99.90;;;;;;5050070;28;20250;-70
2023/08/17 04:05:10;;;;;;;6.90;6.30;;;23.10;99.90;;;;;;5049792;28;20246;-70
2023/08/17 04:07:37;;;;;;;6.95;6.45;;;23.10;99.90;;;;;;5050118;28;20296;-70
2023/08/17 04:10:06;;;;;;;6.55;6.00;;;23.10;99.90;;;;;;5049874;28;20594;-70
2023/08/17 04:12:32;;;;;;;6.55;6.05;;;23.00;99.90;;;;;;5053658;28;20203;-70
2023/08/17 04:15:01;;;;;;;6.35;5.70;;;23.00;99.90;;;;;;5053075;28;20206;-70
2023/08/17 04:17:28;;;;;;;7.90;7.30;;;23.10;99.90;;;;;;5053017;28;20705;-69
2023/08/17 04:19:55;;;;;;;6.10;5.57;;;23.10;99.90;;;;;;5052772;28;20246;-70
2023/08/17 04:22:22;;;;;;;7.22;6.72;;;23.00;99.90;;;;;;5053776;28;20242;-70
2023/08/17 04:24:49;;;;;;;7.55;6.88;;;23.00;99.90;;;;;;5052902;28;20245;-70
2023/08/17 04:27:15;;;;;;;6.95;6.35;;;22.90;99.90;;;;;;5053211;28;20245;-69
2023/08/17 04:29:42;;;;;;;7.25;6.55;;;22.80;99.90;;;;;;5053762;28;20247;-73
2023/08/17 04:32:15;;;;;;;7.95;7.15;;;22.80;99.90;;;;;;5052366;28;20230;-71
2023/08/17 04:34:42;;;;;;;8.70;8.00;;;22.80;99.90;;;;;;5053451;28;20238;-71
2023/08/17 04:37:09;;;;;;;7.80;7.20;;;22.80;99.90;;;;;;5052625;28;20234;-72
2023/08/17 04:39:36;;;;;;;7.00;6.50;;;22.70;99.90;;;;;;5053201;28;20238;-71
2023/08/17 04:42:04;;;;;;;8.38;7.55;;;22.70;99.90;;;;;;5052709;28;20389;-71
2023/08/17 04:44:31;;;;;;;7.25;6.65;;;22.70;99.90;;;;;;5039376;28;20242;-71
2023/08/17 04:46:58;;;;;;;7.95;7.35;;;22.70;99.90;;;;;;5052214;28;20249;-71
2023/08/17 04:49:26;;;;;;;7.65;6.95;;;22.60;99.90;;;;;;5052376;28;20243;-71
2023/08/17 04:51:53;;;;;;;7.50;6.80;;;22.70;99.90;;;;;;5052606;28;20241;-72
2023/08/17 04:54:20;;;;;;;8.10;7.30;;;22.70;99.90;;;;;;5052768;28;20213;-72
2023/08/17 04:56:47;;;;;;;7.72;7.13;;;22.70;99.90;;;;;;5051808;28;20269;-72
2023/08/17 04:59:14;;;;;;;9.35;8.32;;;22.70;99.90;;;;;;5052828;28;20246;-71
2023/08/17 05:01:41;;;;;;;6.88;6.28;;;22.80;99.90;;;;;;5052042;28;20748;-71
2023/08/17 05:04:08;;;;;;;8.00;7.30;;;22.80;99.90;;;;;;5052367;28;20246;-70
2023/08/17 05:06:38;;;;;;;8.32;7.63;;;22.80;99.90;;;;;;5052553;28;20215;-70
2023/08/17 05:09:06;;;;;;;7.43;6.70;;;22.70;99.90;;;;;;5052289;28;20210;-70
2023/08/17 05:11:33;;;;;;;8.88;8.07;;;22.70;99.90;;;;;;5052109;28;20658;-71
2023/08/17 05:14:00;;;;;;;7.25;6.53;;;22.80;99.90;;;;;;5051946;28;20237;-70
2023/08/17 05:16:27;;;;;;;7.88;7.18;;;22.80;99.90;;;;;;5052230;28;20273;-69
2023/08/17 05:18:54;;;;;;;9.18;6.75;;;22.80;99.90;;;;;;5051555;28;20242;-70
2023/08/17 05:21:21;;;;;;;7.18;6.53;;;22.80;99.90;;;;;;5052171;28;20249;-71
2023/08/17 05:23:49;;;;;;;6.57;5.85;;;22.80;99.90;;;;;;5051530;28;20284;-71
2023/08/17 05:26:16;;;;;;;9.20;5.97;;;22.90;99.90;;;;;;5052152;28;20290;-72
2023/08/17 05:28:43;;;;;;;7.95;5.68;;;22.90;99.90;;;;;;5052074;28;20238;-72
2023/08/17 05:31:10;;;;;;;5.55;4.20;;;23.00;99.90;;;;;;5051868;28;20199;-72
2023/08/17 05:33:37;;;;;;;5.25;4.78;;;23.10;99.90;;;;;;5051811;28;20265;-75
2023/08/17 05:36:05;;;;;;;6.10;5.43;;;23.10;99.90;;;;;;5048608;28;20345;-77
2023/08/17 05:38:32;;;;;;;5.88;5.22;;;23.20;99.90;;;;;;5047381;28;20592;-71
2023/08/17 05:41:01;;;;;;;6.80;5.82;;;23.10;99.90;;;;;;5048265;28;20231;-71
2023/08/17 05:43:28;;;;;;;7.18;4.95;;;23.20;99.90;;;;;;5050770;28;20244;-70
2023/08/17 05:45:59;;;;;;;9.63;4.75;;;23.30;99.90;;;;;;5050733;28;20234;-71
2023/08/17 05:48:25;;;;;;;5.07;4.63;;;23.30;99.90;;;;;;5050891;28;20598;-73
2023/08/17 05:50:52;;;;;;;5.03;4.43;;;23.30;99.90;;;;;;5050397;28;20245;-72
2023/08/17 05:53:19;;;;;;;5.95;4.88;;;23.40;99.90;;;;;;5050700;28;20206;-72
2023/08/17 05:55:46;;;;;;;8.07;5.30;;;23.30;99.90;;;;;;5049514;28;20238;-76
2023/08/17 05:58:15;;;;;;;6.88;4.78;;;23.40;99.90;;;;;;5049235;28;20209;-74
2023/08/17 06:00:42;;;;;;;5.47;4.97;;;23.50;99.90;;;;;;5050053;28;20674;-72
2023/08/17 06:03:09;;;;;;;8.48;5.10;;;23.50;99.90;;;;;;5049642;28;20231;-72
2023/08/17 06:05:36;;;;;;;8.30;5.05;;;23.50;99.90;;;;;;5050996;28;20210;-72
2023/08/17 06:08:03;;;;;;;5.88;5.35;;;23.50;99.90;;;;;;5049491;28;20238;-73
2023/08/17 06:10:30;;;;;;;6.25;4.50;;;23.40;99.90;;;;;;5050640;28;20639;-70
2023/08/17 06:12:57;;;;;;;5.90;5.30;;;23.30;99.90;;;;;;5049711;28;20435;-72
2023/08/17 06:15:26;;;;;;;5.35;4.68;;;23.40;99.90;;;;;;5050843;28;20235;-72
2023/08/17 06:17:53;;;;;;;5.82;5.43;;;23.40;99.90;;;;;;5050319;28;20270;-72
2023/08/17 06:20:20;;;;;;;5.25;4.10;;;23.40;99.90;;;;;;5050626;28;20211;-73
2023/08/17 06:22:48;;;;;;;5.68;5.15;;;23.30;99.90;;;;;;5050027;28;20257;-73
2023/08/17 06:25:15;;;;;;;6.28;4.22;;;23.30;99.90;;;;;;5050891;28;20217;-80
2023/08/17 06:27:44;;;;;;;6.20;5.20;;;23.30;99.90;;;;;;5050103;28;20241;-81
2023/08/17 06:30:12;;;;;;;5.25;3.88;;;23.30;99.90;;;;;;5050751;28;20245;-82
2023/08/17 06:32:40;;;;;;;6.13;5.05;;;23.30;99.90;;;;;;5049760;28;20222;-83
2023/08/17 06:35:08;;;;;;;7.65;4.97;;;23.40;99.90;;;;;;5050093;28;20238;-80
2023/08/17 06:37:35;;;;;;;5.43;4.68;;;23.40;99.90;;;;;;5048504;28;20253;-78
2023/08/17 06:40:03;;;;;;;8.52;5.07;;;23.30;99.90;;;;;;5049841;28;20234;-76
2023/08/17 06:42:30;;;;;;;6.70;4.93;;;23.30;99.90;;;;;;5046547;28;20698;-77
2023/08/17 06:44:57;;;;;;;10.57;5.00;;;23.40;99.90;;;;;;5041800;28;20226;-75
2023/08/17 06:47:24;;;;;;;8.43;4.28;;;23.60;99.90;;;;;;5049962;28;20265;-75
2023/08/17 06:49:52;;;;;;;7.40;4.90;;;23.50;99.90;;;;;;5048461;28;20604;-75
2023/08/17 06:52:19;;;;;;;5.28;4.78;;;23.30;99.90;;;;;;5049975;28;20239;-76
2023/08/17 06:54:48;;;;;;;6.95;4.18;;;23.40;99.90;;;;;;5050119;28;20210;-75
2023/08/17 06:57:15;;;;;;;7.03;4.72;;;23.50;99.90;;;;;;5049391;28;20239;-75
2023/08/17 06:59:45;;;;;;;6.18;4.55;;;23.70;99.90;;;;;;5046190;28;20230;-72
2023/08/17 07:02:12;;;;;;;5.18;4.70;;;24.00;99.90;;;;;;5050178;28;20246;-75
2023/08/17 07:04:39;;;;;;;6.28;4.65;;;23.80;99.90;;;;;;5050120;28;20213;-77
2023/08/17 07:07:07;;;;;;;6.43;5.82;;;23.70;99.90;;;;;;5049575;28;20264;-76
2023/08/17 07:09:34;;;;;;;8.32;5.05;;;23.90;99.90;;;;;;5050331;28;20293;-75
2023/08/17 07:12:01;;;;;;;5.53;5.00;;;24.10;99.90;;;;;;5049704;28;20203;-76
2023/08/17 07:14:29;;;;;;;6.25;5.45;;;24.20;99.90;;;;;;5050193;28;20735;-74
2023/08/17 07:16:55;;;;;;;8.18;5.47;;;24.30;99.90;;;;;;5049460;28;20237;-79
2023/08/17 07:19:23;;;;;;;4.82;4.38;;;24.60;99.90;;;;;;5050522;28;20206;-78
2023/08/17 07:21:50;;;;;;;6.07;5.57;;;24.70;99.90;;;;;;5049496;28;20623;-80
2023/08/17 07:24:18;;;;;;;9.27;5.63;;;24.60;99.90;;;;;;5050357;28;20210;-76
2023/08/17 07:26:45;;;;;;;8.48;5.63;;;24.50;99.90;;;;;;5049152;28;20210;-72
2023/08/17 07:29:12;;;;;;;6.38;5.75;;;24.60;99.90;;;;;;5046054;28;20670;-80
2023/08/17 07:31:39;;;;;;;6.72;4.72;;;24.50;99.90;;;;;;5048519;28;20211;-77
2023/08/17 07:34:06;;;;;;;6.72;4.80;;;24.50;99.90;;;;;;5047430;28;20242;-76
2023/08/17 07:36:33;;;;;;;7.13;5.32;;;24.40;99.90;;;;;;5046065;28;20199;-76
2023/08/17 07:39:00;;;;;;;11.57;6.18;;;24.60;99.90;;;;;;5047026;28;20555;-76
2023/08/17 07:41:29;;;;;;;6.60;5.90;;;24.50;99.90;;;;;;5047480;28;20637;-76
2023/08/17 07:43:55;;;;;;;6.18;5.32;;;24.80;99.90;;;;;;5047909;28;20249;-76
2023/08/17 07:46:22;;;;;;;6.15;5.55;;;24.80;99.90;;;;;;5052680;28;20246;-76
2023/08/17 07:48:49;;;;;;;8.32;6.22;;;24.90;99.90;;;;;;5051901;28;20242;-76
2023/08/17 07:51:16;;;;;;;7.60;5.63;;;24.80;99.90;;;;;;5049143;28;20207;-77
2023/08/17 07:53:43;;;;;;;7.72;5.72;;;24.80;99.90;;;;;;5052071;28;20238;-76
2023/08/17 07:56:10;;;;;;;6.07;5.55;;;25.10;99.90;;;;;;5051052;28;20317;-78
2023/08/17 07:58:39;;;;;;;6.03;5.50;;;25.00;99.90;;;;;;5051937;28;20316;-77
2023/08/17 08:01:06;;;;;;;6.20;5.80;;;24.90;99.90;;;;;;5047796;28;20628;-76
2023/08/17 08:03:33;;;;;;;6.03;5.53;;;25.10;99.90;;;;;;5052839;28;20217;-75
2023/08/17 08:06:00;;;;;;;6.25;5.75;;;25.20;99.90;;;;;;5052550;28;20297;-76
2023/08/17 08:08:27;;;;;;;5.35;4.85;;;25.30;99.90;;;;;;5052167;28;20235;-75
2023/08/17 08:10:55;;;;;;;5.35;4.95;;;25.40;99.90;;;;;;5051164;28;20242;-75
2023/08/17 08:13:22;;;;;;;6.25;5.65;;;25.40;99.90;;;;;;5048686;28;20207;-77
2023/08/17 08:15:50;;;;;;;5.03;4.55;;;25.80;99.90;;;;;;5051437;28;20210;-77
2023/08/17 08:18:17;;;;;;;5.35;4.50;;;25.90;99.90;;;;;;5049032;28;20613;-77
2023/08/17 08:20:44;;;;;;;7.50;6.07;;;25.80;99.90;;;;;;5050278;28;20253;-75
2023/08/17 08:23:11;;;;;;;5.65;5.25;;;26.00;99.90;;;;;;5052258;28;20285;-75
2023/08/17 08:25:38;;;;;;;5.40;4.53;;;25.90;99.90;;;;;;5051326;28;20257;-78
2023/08/17 08:28:05;;;;;;;4.82;4.43;;;25.90;99.90;;;;;;5052447;28;20261;-79
2023/08/17 08:30:32;;;;;;;5.30;4.80;;;25.70;99.90;;;;;;5053249;28;20207;-79
2023/08/17 08:33:00;;;;;;;4.80;4.40;;;25.90;99.90;;;;;;5052452;28;20211;-76
2023/08/17 08:35:29;;;;;;;6.57;5.97;;;25.90;99.90;;;;;;5051697;28;20242;-80
2023/08/17 08:37:58;;;;;;;6.45;4.50;;;26.10;99.90;;;;;;5051856;28;20716;-81
2023/08/17 08:40:29;;;;;;;6.47;5.05;;;26.30;99.90;;;;;;5052345;28;20257;-73
2023/08/17 08:42:56;;;;;;;5.82;5.22;;;26.40;99.90;;;;;;5052456;28;20638;-77
2023/08/17 08:45:24;;;;;;;5.82;5.32;;;26.20;99.90;;;;;;5051642;28;20239;-75
2023/08/17 08:47:53;;;;;;;5.53;5.00;;;26.10;99.90;;;;;;5052146;28;20202;-71
2023/08/17 08:50:22;;;;;;;6.18;5.53;;;26.50;99.90;;;;;;5052098;28;20211;-70
2023/08/17 08:52:58;;;;;;;5.22;4.90;;;26.70;99.90;;;;;;5049220;28;20298;-70
2023/08/17 08:55:30;;;;;;;5.72;5.22;;;26.70;99.90;;;;;;5051226;28;20689;-75
2023/08/17 08:57:58;;;;;;;7.05;5.05;;;26.60;99.90;;;;;;5051190;28;20318;-73
2023/08/17 09:00:26;;;;;;;5.38;4.97;;;26.80;99.90;;;;;;5051812;28;20203;-78
2023/08/17 09:02:54;;;;;;;5.00;4.60;;;27.10;99.90;;;;;;5051754;28;20213;-80
2023/08/17 09:05:23;;;;;;;7.47;4.80;;;27.30;99.90;;;;;;5051713;28;20207;-77
2023/08/17 09:07:50;;;;;;;5.30;4.90;;;27.30;99.90;;;;;;5051670;28;20227;-74
2023/08/17 09:10:17;;;;;;;4.97;4.40;;;27.90;99.90;;;;;;5052406;28;20213;-83
2023/08/17 09:12:46;;;;;;;5.13;4.70;;;28.70;99.90;;;;;;5047507;28;20288;-72
2023/08/17 09:15:13;;;;;;;5.70;5.30;;;28.20;99.90;;;;;;5049798;28;20245;-73
2023/08/17 09:17:40;;;;;;;4.32;3.92;;;28.30;99.90;;;;;;5052131;28;20333;-72
2023/08/17 09:20:09;;;;;;;5.35;4.85;;;28.40;99.90;;;;;;5051019;28;20242;-76
2023/08/17 09:22:41;;;;;;;6.07;4.65;;;29.20;99.90;;;;;;5051026;28;20241;-74
2023/08/17 09:25:09;;;;;;;4.70;4.32;;;29.30;99.90;;;;;;5051012;28;20230;-74
2023/08/17 09:27:37;;;;;;;5.00;4.35;;;29.50;99.90;;;;;;5046623;28;20266;-75
2023/08/17 09:30:06;;;;;;;4.75;4.45;;;29.30;99.90;;;;;;5049365;28;20633;-75
2023/08/17 09:32:33;;;;;;;5.10;4.40;;;29.60;99.90;;;;;;5051089;28;20587;-76
2023/08/17 09:35:03;;;;;;;4.30;3.90;;;30.30;99.90;;;;;;5051029;28;20292;-75
2023/08/17 09:37:30;;;;;;;5.45;4.22;;;30.50;99.90;;;;;;5051186;28;20236;-76
2023/08/17 09:39:59;;;;;;;4.55;3.40;;;32.20;99.90;;;;;;5050796;28;20217;-75
2023/08/17 09:42:27;;;;;;;3.40;3.20;;;32.30;99.90;;;;;;5046135;28;20238;-74
2023/08/17 09:44:55;;;;;;;5.68;3.67;;;33.60;99.90;;;;;;5050488;28;20202;-74
2023/08/17 09:47:23;;;;;;;3.40;3.15;;;33.90;99.90;;;;;;5050767;28;20213;-74
2023/08/17 09:49:50;;;;;;;3.42;3.10;;;33.20;99.90;;;;;;5048975;28;20669;-72
2023/08/17 09:52:17;;;;;;;3.80;3.50;;;33.50;99.90;;;;;;5051389;28;20212;-72
2023/08/17 09:54:46;;;;;;;3.53;3.28;;;33.90;99.90;;;;;;5051172;28;20242;-73
2023/08/17 09:57:14;;;;;;;4.15;3.13;;;34.30;99.90;;;;;;5049883;28;20206;-72
2023/08/17 09:59:40;;;;;;;3.40;3.10;;;33.70;99.90;;;;;;5050817;28;20669;-74
2023/08/17 10:02:16;;;;;;;3.97;3.58;;;32.90;99.90;;;;;;5050733;28;20624;-77
2023/08/17 10:04:43;;;;;;;3.83;3.38;;;33.50;99.90;;;;;;5050741;28;20585;-76
2023/08/17 10:07:12;;;;;;;3.63;3.35;;;35.50;99.90;;;;;;5049819;28;20242;-76
2023/08/17 10:09:43;;;;;;;3.40;2.83;;;35.70;99.90;;;;;;5049662;28;20202;-80
2023/08/17 10:12:15;;;;;;;4.03;2.83;;;36.00;99.90;;;;;;5049626;28;20256;-77
2023/08/17 10:14:57;;;;;;;3.53;3.22;;;35.60;99.90;;;;;;5043790;28;20235;-77
2023/08/17 10:17:28;;;;;;;3.05;2.85;;;36.90;99.90;;;;;;5039055;28;20241;-78
2023/08/17 10:19:58;;;;;;;4.55;3.20;;;37.90;99.90;;;;;;5050450;28;20235;-78
2023/08/17 10:22:32;;;;;;;3.53;3.03;;;38.20;99.90;;;;;;5050702;28;20242;-79
2023/08/17 10:24:59;;;;;;;4.43;2.85;;;36.50;99.90;;;;;;5043735;28;20600;-77
2023/08/17 10:27:28;;;;;;;3.58;3.38;;;36.00;99.90;;;;;;5049587;28;20613;-78
2023/08/17 10:29:57;;;;;;;3.78;3.38;;;35.70;99.90;;;;;;5046213;28;20206;-78
2023/08/17 10:32:25;;;;;;;4.50;3.15;;;33.40;99.90;;;;;;5047963;28;20646;-76
2023/08/17 10:34:53;;;;;;;2.80;2.58;;;32.10;99.90;;;;;;5049223;28;20244;-74
2023/08/17 10:37:21;;;;;;;4.25;3.30;;;31.90;99.90;;;;;;5050641;28;20292;-75
2023/08/17 10:39:49;;;;;;;3.25;2.78;;;31.10;99.90;;;;;;5050375;28;20206;-76
2023/08/17 10:42:30;;;;;;;3.35;3.03;;;30.90;99.90;;;;;;5050849;28;20202;-74
2023/08/17 10:45:01;;;;;;;3.80;3.30;;;30.60;99.90;;;;;;5046935;28;20210;-74
2023/08/17 10:47:30;;;;;;;3.22;3.00;;;30.40;99.90;;;;;;5047732;28;20267;-76
2023/08/17 10:49:58;;;;;;;3.70;3.40;;;30.80;99.90;;;;;;5047654;28;20244;-76
2023/08/17 10:52:31;;;;;;;3.75;3.45;;;31.10;99.90;;;;;;5049685;28;20245;-75
2023/08/17 10:55:01;;;;;;;5.18;3.50;;;31.10;99.90;;;;;;5048036;28;20198;-75
2023/08/17 10:57:35;;;;;;;4.10;3.80;;;31.40;99.90;;;;;;5049920;28;20213;-76
2023/08/17 11:00:21;;;;;;;3.30;3.00;;;31.70;99.90;;;;;;5049208;28;20244;-75
2023/08/17 11:02:54;;;;;;;3.53;3.22;;;31.80;99.90;;;;;;5049010;28;20673;-76
2023/08/17 11:05:42;;;;;;;3.85;3.50;;;31.50;99.90;;;;;;5048708;28;20669;-75
2023/08/17 11:08:10;;;;;;;5.55;3.25;;;31.60;99.90;;;;;;5049513;28;20742;-75
2023/08/17 11:10:38;;;;;;;4.55;3.30;;;31.80;99.90;;;;;;5049918;28;20310;-73
2023/08/17 11:13:07;;;;;;;3.30;3.10;;;31.40;99.90;;;;;;5049699;28;20202;-75
2023/08/17 11:15:42;;;;;;;4.25;3.08;;;31.60;99.90;;;;;;5049164;28;20202;-75
2023/08/17 11:18:10;;;;;;;3.30;3.08;;;31.90;99.90;;;;;;5046761;28;20363;-72
2023/08/17 11:20:38;;;;;;;3.35;3.05;;;31.90;99.90;;;;;;5050418;28;20289;-77
2023/08/17 11:23:05;;;;;;;4.10;3.25;;;31.50;99.90;;;;;;5052984;28;20213;-74
2023/08/17 11:25:34;;;;;;;4.03;3.15;;;31.60;99.90;;;;;;5053334;28;20244;-75
2023/08/17 11:28:01;;;;;;;3.35;3.05;;;31.80;99.90;;;;;;5053483;28;20209;-73
2023/08/17 11:30:29;;;;;;;4.35;3.20;;;31.80;99.90;;;;;;5049913;28;20232;-77
2023/08/17 11:32:57;;;;;;;6.15;3.20;;;31.50;99.90;;;;;;5053142;28;20241;-76
2023/08/17 11:35:24;;;;;;;3.25;2.83;;;31.60;99.90;;;;;;5053627;28;20213;-79
2023/08/17 11:37:51;;;;;;;3.90;2.95;;;31.50;99.90;;;;;;5053089;28;20232;-77
2023/08/17 11:40:19;;;;;;;3.85;3.55;;;31.60;99.90;;;;;;5050360;28;20214;-77
2023/08/17 11:42:47;;;;;;;3.33;2.83;;;31.60;99.90;;;;;;5053368;28;20280;-73
2023/08/17 11:45:14;;;;;;;6.13;3.92;;;31.90;99.90;;;;;;5054185;28;20280;-74
2023/08/17 11:47:43;;;;;;;3.72;3.30;;;32.00;99.90;;;;;;5053279;28;20704;-73
2023/08/17 11:50:13;;;;;;;3.53;3.22;;;32.00;99.90;;;;;;5051914;28;20216;-75
2023/08/17 11:52:40;;;;;;;3.50;2.97;;;32.00;99.90;;;;;;5053767;28;20264;-75
2023/08/17 11:55:09;;;;;;;4.35;3.15;;;32.10;99.90;;;;;;5052609;28;21026;-77
2023/08/17 11:57:36;;;;;;;3.47;3.20;;;32.00;99.90;;;;;;5053183;28;20220;-75
2023/08/17 12:00:07;;;;;;;3.25;2.95;;;32.00;99.90;;;;;;5052744;28;20272;-77
2023/08/17 12:02:37;;;;;;;3.45;3.10;;;32.20;99.90;;;;;;5052916;28;20546;-77
2023/08/17 12:05:06;;;;;;;3.83;3.53;;;31.80;99.90;;;;;;5052678;28;20210;-74
2023/08/17 12:07:35;;;;;;;3.00;2.80;;;31.80;99.90;;;;;;5052512;28;20572;-73
2023/08/17 12:10:04;;;;;;;4.57;3.63;;;31.80;99.90;;;;;;5052540;28;20255;-73
2023/08/17 12:12:31;;;;;;;3.38;3.13;;;31.90;99.90;;;;;;5053225;28;20210;-71
2023/08/17 12:14:59;;;;;;;5.00;3.72;;;32.10;99.90;;;;;;5052249;28;20210;-73
2023/08/17 12:17:26;;;;;;;5.57;3.70;;;32.30;99.90;;;;;;5052334;28;20206;-70
2023/08/17 12:19:56;;;;;;;5.05;3.55;;;32.30;99.90;;;;;;5052464;28;20261;-70
2023/08/17 12:22:25;;;;;;;4.43;3.20;;;32.40;99.90;;;;;;5050542;28;20975;-75
2023/08/17 12:24:54;;;;;;;2.95;2.65;;;32.40;99.90;;;;;;5051702;28;20202;-76
2023/08/17 12:27:23;;;;;;;5.55;3.28;;;32.40;99.90;;;;;;5051460;28;20217;-74
2023/08/17 12:29:51;;;;;;;3.25;2.78;;;32.60;99.90;;;;;;5049587;28;20299;-70
2023/08/17 12:32:20;;;;;;;3.15;2.95;;;32.60;99.90;;;;;;5055958;28;20712;-72
2023/08/17 12:34:47;;;;;;;4.07;3.08;;;32.50;99.90;;;;;;5052703;28;20241;-74
2023/08/17 12:37:20;;;;;;;3.90;3.60;;;32.70;99.90;;;;;;5051966;28;20297;-68
2023/08/17 12:39:47;;;;;;;4.10;2.67;;;32.50;99.90;;;;;;5049232;28;20260;-70
2023/08/17 12:42:16;;;;;;;3.15;2.85;;;32.30;99.90;;;;;;5052325;28;20574;-71
2023/08/17 12:44:43;;;;;;;4.53;3.70;;;32.30;99.90;;;;;;5047955;28;20213;-73
